createdAt,value
2023-05-07T00:01:37.971Z,66.23
2023-05-07T00:04:04.860Z,67.44
2023-05-07T00:06:31.593Z,67.60
2023-05-07T00:08:58.759Z,67.52
2023-05-07T00:14:00.793Z,66.35
2023-05-07T00:16:27.426Z,65.93
2023-05-07T00:18:54.938Z,67.01
2023-05-07T00:21:22.554Z,66.86
2023-05-07T00:23:49.356Z,67.05
2023-05-07T00:26:37.804Z,66.85
2023-05-07T00:29:04.381Z,67.03
2023-05-07T00:31:30.987Z,68.12
2023-05-07T00:33:57.592Z,68.73
2023-05-07T00:37:27.065Z,68.85
2023-05-07T00:42:50.065Z,69.06
2023-05-07T00:45:18.051Z,68.95
2023-05-07T00:47:45.070Z,68.95
2023-05-07T00:50:13.783Z,69.00
2023-05-07T00:52:40.928Z,68.48
2023-05-07T00:58:03.252Z,66.91
2023-05-07T01:00:29.895Z,67.17
2023-05-07T01:02:56.686Z,66.87
2023-05-07T01:05:25.427Z,66.19
2023-05-07T01:14:09.928Z,66.70
2023-05-07T01:16:37.695Z,67.44
2023-05-07T01:19:04.665Z,68.59
2023-05-07T01:21:35.455Z,68.27
2023-05-07T01:24:02.131Z,67.80
2023-05-07T01:29:03.925Z,66.54
2023-05-07T01:31:30.915Z,66.44
2023-05-07T01:34:00.507Z,65.89
2023-05-07T01:42:45.047Z,65.23
2023-05-07T01:45:12.399Z,65.55
2023-05-07T01:47:40.472Z,65.50
2023-05-07T01:50:09.726Z,65.84
2023-05-07T01:52:39.171Z,65.76
2023-05-07T01:57:41.152Z,67.29
2023-05-07T02:00:09.765Z,67.70
2023-05-07T02:02:37.182Z,68.08
2023-05-07T02:05:51.101Z,68.72
2023-05-07T02:11:29.350Z,69.33
2023-05-07T02:13:56.126Z,69.72
2023-05-07T02:16:24.211Z,70.55
2023-05-07T02:18:50.899Z,70.65
2023-05-07T02:21:17.586Z,70.45
2023-05-07T02:23:44.224Z,70.90
2023-05-07T02:26:26.953Z,70.48
2023-05-07T02:28:54.737Z,70.76
2023-05-07T02:31:21.321Z,70.84
2023-05-07T02:33:47.910Z,70.77
2023-05-07T02:36:52.569Z,70.38
2023-05-07T02:41:54.396Z,69.93
2023-05-07T02:44:20.959Z,70.18
2023-05-07T02:46:47.490Z,70.26
2023-05-07T02:49:14.094Z,70.31
2023-05-07T02:51:40.791Z,70.46
2023-05-07T02:56:42.586Z,69.71
2023-05-07T02:59:09.110Z,70.33
2023-05-07T03:01:35.794Z,70.60
2023-05-07T03:04:02.708Z,70.24
2023-05-07T03:06:29.350Z,70.05
2023-05-07T03:09:20.730Z,70.00
2023-05-07T03:12:37.770Z,70.37
2023-05-07T03:15:26.222Z,70.09
2023-05-07T03:17:52.826Z,70.26
2023-05-07T03:20:19.546Z,69.99
2023-05-07T03:22:46.271Z,70.15
2023-05-07T03:27:48.146Z,69.52
2023-05-07T03:30:14.924Z,69.36
2023-05-07T03:32:41.887Z,69.10
2023-05-07T03:35:08.719Z,69.21
2023-05-07T03:37:35.333Z,68.93
2023-05-07T03:42:37.384Z,69.29
2023-05-07T03:45:04.344Z,69.33
2023-05-07T03:47:31.389Z,68.76
2023-05-07T03:53:49.843Z,67.37
2023-05-07T03:56:17.842Z,67.17
2023-05-07T03:58:46.565Z,66.94
2023-05-07T04:01:13.173Z,66.70
2023-05-07T04:03:39.776Z,66.26
2023-05-07T04:06:06.931Z,66.07
2023-05-07T04:16:41.998Z,65.55
2023-05-07T04:26:04.948Z,66.87
2023-05-07T04:28:31.563Z,66.60
2023-05-07T04:30:58.636Z,66.58
2023-05-07T04:33:25.349Z,67.17
2023-05-07T04:35:51.925Z,67.22
2023-05-07T04:38:42.705Z,67.32
2023-05-07T04:41:10.524Z,67.08
2023-05-07T04:43:37.116Z,66.58
2023-05-07T04:46:03.719Z,66.63
2023-05-07T05:25:09.047Z,64.14
2023-05-07T05:27:36.816Z,64.05
2023-05-07T05:30:04.518Z,63.85
2023-05-07T05:32:31.179Z,63.62
2023-05-07T05:34:57.776Z,63.30
2023-05-07T05:37:24.465Z,63.30
2023-05-07T06:06:35.943Z,60.78
2023-05-07T06:09:02.538Z,61.78
2023-05-07T06:11:29.090Z,60.07
2023-05-07T06:13:55.624Z,59.96
2023-05-07T06:16:22.235Z,60.85
2023-05-07T06:18:48.806Z,59.51
2023-05-07T06:21:16.292Z,58.47
2023-05-07T06:24:01.734Z,58.30
2023-05-07T06:26:28.260Z,58.40
2023-05-07T06:28:54.798Z,57.37
2023-05-07T06:31:21.659Z,56.79
2023-05-07T06:34:37.144Z,56.60
2023-05-07T06:37:32.202Z,55.45
2023-05-07T06:40:07.599Z,54.99
2023-05-07T06:42:34.195Z,53.97
2023-05-07T06:45:00.809Z,53.94
2023-05-07T06:47:30.382Z,55.00
2023-05-07T06:49:57.335Z,53.71
2023-05-07T06:52:46.441Z,53.13
2023-05-07T06:55:14.040Z,52.71
2023-05-07T06:57:40.987Z,53.84
2023-05-07T07:00:21.151Z,52.90
2023-05-07T07:02:47.750Z,52.11
2023-05-07T07:05:14.634Z,50.79
2023-05-07T07:07:41.732Z,50.67
2023-05-07T07:10:09.051Z,50.46
2023-05-07T07:12:49.595Z,50.57
2023-05-07T09:05:41.397Z,53.47
2023-05-07T09:08:09.073Z,53.61
2023-05-07T09:10:35.701Z,53.92
2023-05-07T09:13:04.016Z,53.32
2023-05-07T09:15:33.506Z,53.69
2023-05-07T10:08:09.799Z,45.60
2023-05-07T10:10:45.087Z,45.33
2023-05-07T10:33:38.734Z,47.52
2023-05-07T10:36:17.657Z,47.34
2023-05-07T10:38:44.770Z,48.00
2023-05-07T10:41:12.338Z,48.14
2023-05-07T10:44:02.436Z,48.42
2023-05-07T10:46:29.316Z,47.71
2023-05-07T10:49:01.804Z,47.50
2023-05-07T10:51:29.305Z,47.79
2023-05-07T10:54:11.322Z,47.68
2023-05-07T10:56:47.083Z,47.29
2023-05-07T10:59:28.138Z,46.99
2023-05-07T11:02:00.256Z,45.34
2023-05-07T11:04:32.462Z,44.42
2023-05-07T11:07:11.223Z,43.72
2023-05-07T11:09:56.979Z,43.58
2023-05-07T11:12:39.163Z,43.40
2023-05-07T11:15:10.926Z,43.63
2023-05-07T11:17:58.987Z,42.52
2023-05-07T11:20:58.121Z,41.73
2023-05-07T11:23:38.311Z,41.54
2023-05-07T11:26:09.565Z,40.89
2023-05-07T11:28:42.986Z,43.62
2023-05-07T11:31:11.063Z,40.85
2023-05-07T11:33:39.169Z,40.24
2023-05-07T11:36:08.792Z,39.78
2023-05-07T11:38:39.705Z,40.06
2023-05-07T11:41:06.505Z,39.67
2023-05-07T11:43:34.085Z,39.27
2023-05-07T11:46:10.190Z,39.29
2023-05-07T11:48:42.536Z,39.44
2023-05-07T11:51:16.184Z,40.32
2023-05-07T11:53:44.441Z,39.83
2023-05-07T11:56:16.318Z,38.25
2023-05-07T11:59:13.781Z,40.58
2023-05-07T12:25:00.622Z,36.41
2023-05-07T12:27:27.562Z,39.09
2023-05-07T12:29:54.202Z,35.93
2023-05-07T12:42:08.693Z,35.99
2023-05-07T12:44:36.149Z,35.92
2023-05-07T12:47:03.833Z,35.98
2023-05-07T12:49:30.797Z,36.49
2023-05-07T12:54:34.344Z,37.62
2023-05-07T12:57:10.842Z,36.52
2023-05-07T12:59:39.305Z,36.22
2023-05-07T13:02:06.431Z,36.07
2023-05-07T13:04:33.697Z,36.45
2023-05-07T13:07:01.264Z,37.07
2023-05-07T13:09:29.642Z,36.54
2023-05-07T13:11:56.408Z,35.76
2023-05-07T13:14:23.075Z,35.76
2023-05-07T13:16:50.343Z,36.36
2023-05-07T13:19:17.187Z,36.47
2023-05-07T13:21:43.750Z,36.49
2023-05-07T13:24:10.435Z,35.52
2023-05-07T13:26:37.198Z,35.56
2023-05-07T13:29:03.810Z,35.93
2023-05-07T13:31:31.073Z,35.82
2023-05-07T13:33:57.735Z,35.29
2023-05-07T13:41:34.813Z,37.31
2023-05-07T13:44:01.443Z,37.67
2023-05-07T13:46:28.342Z,37.76
2023-05-07T13:49:24.060Z,38.31
2023-05-07T13:54:40.437Z,38.21
2023-05-07T13:57:07.084Z,37.32
2023-05-07T13:59:36.602Z,37.34
2023-05-07T14:02:03.206Z,37.36
2023-05-07T14:04:32.149Z,37.52
2023-05-07T14:06:58.702Z,37.21
2023-05-07T14:09:25.276Z,37.53
2023-05-07T14:11:52.437Z,37.66
2023-05-07T14:14:19.732Z,37.39
2023-05-07T14:16:48.415Z,37.21
2023-05-07T14:19:16.063Z,36.88
2023-05-07T14:45:17.216Z,36.39
2023-05-07T14:47:43.922Z,37.01
2023-05-07T14:50:11.782Z,37.25
2023-05-07T14:52:38.361Z,37.53
2023-05-07T14:55:05.746Z,38.27
2023-05-07T14:57:35.795Z,38.32
2023-05-07T15:00:14.346Z,38.53
2023-05-07T15:02:41.062Z,38.54
2023-05-07T15:05:15.410Z,37.98
2023-05-07T15:07:47.388Z,38.19
2023-05-07T15:15:24.827Z,39.40
2023-05-07T15:17:51.501Z,38.64
2023-05-07T15:20:18.729Z,38.40
2023-05-07T15:28:02.149Z,38.30
2023-05-07T15:30:29.744Z,38.71
2023-05-07T15:32:56.736Z,38.66
2023-05-07T15:35:23.550Z,38.68
2023-05-07T15:37:50.942Z,38.63
2023-05-07T15:40:38.757Z,38.40
2023-05-07T15:43:05.290Z,38.32
2023-05-07T15:45:32.027Z,38.16
2023-05-07T15:47:59.227Z,38.37
2023-05-07T15:50:26.255Z,38.32
2023-05-07T15:56:56.465Z,37.37
2023-05-07T15:59:27.526Z,36.96
2023-05-07T16:02:17.344Z,37.10
2023-05-07T16:04:45.009Z,36.97
2023-05-07T16:10:00.521Z,36.51
2023-05-07T16:12:29.974Z,36.38
2023-05-07T16:14:56.595Z,35.96
2023-05-07T16:17:32.694Z,36.33
2023-05-07T16:20:19.783Z,36.37
2023-05-07T16:22:48.138Z,35.80
2023-05-07T16:25:15.074Z,36.18
2023-05-07T16:32:58.440Z,36.13
2023-05-07T16:35:25.128Z,36.07
2023-05-07T16:37:54.882Z,35.88
2023-05-07T16:40:25.242Z,36.10
2023-05-07T16:43:00.483Z,36.24
2023-05-07T16:45:27.086Z,36.15
2023-05-07T16:47:54.679Z,36.06
2023-05-07T16:50:21.279Z,36.26
2023-05-07T16:52:53.423Z,36.30
2023-05-07T16:55:20.282Z,36.45
2023-05-07T16:57:46.899Z,36.29
2023-05-07T17:00:14.376Z,36.28
2023-05-07T17:02:41.124Z,36.39
2023-05-07T17:05:10.086Z,36.20
2023-05-07T17:07:38.042Z,36.70
2023-05-07T17:10:05.469Z,36.52
2023-05-07T17:12:32.073Z,36.69
2023-05-07T17:15:12.393Z,36.85
2023-05-07T17:17:40.951Z,36.99
2023-05-07T17:20:09.333Z,37.25
2023-05-07T17:22:36.024Z,37.81
2023-05-07T17:25:04.248Z,37.55
2023-05-07T17:27:37.034Z,38.25
2023-05-07T17:30:03.668Z,38.12
2023-05-07T17:32:30.452Z,38.28
2023-05-07T17:34:59.070Z,38.56
2023-05-07T17:37:26.155Z,38.62
2023-05-07T17:42:28.221Z,38.48
2023-05-07T17:44:55.899Z,38.71
2023-05-07T17:47:23.965Z,38.98
2023-05-07T17:49:50.557Z,38.77
2023-05-07T17:52:17.165Z,38.62
2023-05-07T18:02:51.910Z,39.09
2023-05-07T18:05:18.663Z,38.07
2023-05-07T18:07:45.588Z,38.76
2023-05-07T18:10:12.345Z,38.56
2023-05-07T18:12:40.383Z,38.68
2023-05-07T18:15:07.544Z,38.64
2023-05-07T18:17:34.158Z,38.16
2023-05-07T18:20:00.825Z,38.12
2023-05-07T18:22:27.765Z,37.83
2023-05-07T18:24:55.974Z,38.39
2023-05-07T18:27:22.605Z,38.32
2023-05-07T18:29:49.205Z,38.53
2023-05-07T18:32:16.546Z,39.07
2023-05-07T18:34:43.354Z,39.27
2023-05-07T18:37:09.946Z,40.17
2023-05-07T18:39:36.592Z,39.65
2023-05-07T18:42:05.262Z,39.43
2023-05-07T18:44:32.261Z,39.42
2023-05-07T18:47:06.059Z,39.78
2023-05-07T18:49:36.152Z,40.11
2023-05-07T18:52:05.490Z,40.21
2023-05-07T18:54:32.162Z,40.12
2023-05-07T18:56:58.898Z,40.02
2023-05-07T18:59:25.521Z,40.26
2023-05-07T19:01:52.144Z,40.88
2023-05-07T19:04:18.933Z,40.92
2023-05-07T19:06:46.028Z,40.97
2023-05-07T19:09:12.738Z,41.28
2023-05-07T19:11:39.306Z,41.79
2023-05-07T19:14:06.570Z,41.64
2023-05-07T19:16:33.376Z,42.04
2023-05-07T19:19:00.195Z,42.03
2023-05-07T19:21:28.578Z,41.40
2023-05-07T19:23:57.403Z,41.80
2023-05-07T19:26:24.292Z,48.17
2023-05-07T19:29:06.707Z,50.39
2023-05-07T19:31:38.517Z,50.92
2023-05-07T19:34:05.218Z,52.02
2023-05-07T19:36:34.338Z,52.99
2023-05-07T19:39:01.367Z,52.31
2023-05-07T19:41:28.678Z,53.35
2023-05-07T19:43:55.413Z,55.17
2023-05-07T19:46:22.146Z,56.06
2023-05-07T19:48:49.468Z,55.19
2023-05-07T19:51:16.128Z,54.58
2023-05-07T19:53:42.743Z,56.74
2023-05-07T19:56:10.717Z,56.19
2023-05-07T19:58:38.673Z,55.61
2023-05-07T20:01:06.380Z,56.11
2023-05-07T20:03:34.167Z,55.78
2023-05-07T20:06:01.351Z,55.18
2023-05-07T20:08:28.580Z,55.73
2023-05-07T20:10:57.703Z,55.11
2023-05-07T20:13:24.401Z,54.42
2023-05-07T20:15:51.039Z,53.83
2023-05-07T20:18:17.696Z,53.93
2023-05-07T20:20:45.413Z,53.58
2023-05-07T20:23:12.106Z,53.94
2023-05-07T20:25:41.408Z,53.13
2023-05-07T20:28:08.019Z,51.75
2023-05-07T20:30:34.804Z,51.25
2023-05-07T20:33:01.475Z,50.56
2023-05-07T20:35:28.138Z,50.27
2023-05-07T20:37:54.660Z,50.08
2023-05-07T20:40:21.388Z,49.72
2023-05-07T20:42:47.898Z,49.71
2023-05-07T20:45:14.555Z,49.37
2023-05-07T20:47:41.373Z,50.07
2023-05-07T20:50:08.229Z,49.25
2023-05-07T20:52:35.747Z,48.92
2023-05-07T20:55:02.396Z,48.82
2023-05-07T20:57:28.937Z,48.23
2023-05-07T20:59:55.510Z,47.88
2023-05-07T21:02:22.146Z,47.42
2023-05-07T21:04:51.430Z,47.47
2023-05-07T21:07:18.456Z,47.36
2023-05-07T21:09:45.052Z,47.09
2023-05-07T21:12:11.664Z,46.52
2023-05-07T21:14:39.402Z,47.62
2023-05-07T21:17:07.207Z,46.96
2023-05-07T21:19:34.076Z,47.31
2023-05-07T21:22:01.044Z,47.05
2023-05-07T21:24:27.682Z,46.62
2023-05-07T21:26:56.166Z,46.71
2023-05-07T21:33:06.922Z,46.64
2023-05-07T21:40:59.088Z,48.22
2023-05-07T21:51:52.268Z,48.85
2023-05-07T21:54:18.887Z,48.88
2023-05-07T21:56:49.991Z,49.41
2023-05-07T21:59:16.824Z,49.32
2023-05-07T22:01:43.405Z,49.93
2023-05-07T22:06:45.412Z,49.71
2023-05-07T22:09:12.389Z,49.94
2023-05-07T22:11:39.064Z,50.38
2023-05-07T22:14:27.626Z,50.49
2023-05-07T22:19:54.448Z,50.74
2023-05-07T22:22:51.216Z,50.46
2023-05-07T22:25:19.263Z,50.89
2023-05-07T22:27:45.986Z,50.43
2023-05-07T22:30:13.122Z,50.03
2023-05-07T22:32:42.177Z,49.37
2023-05-07T22:35:24.929Z,49.06
2023-05-07T22:37:51.466Z,49.10
2023-05-07T22:42:59.034Z,49.66
2023-05-07T22:49:12.350Z,49.47
2023-05-07T23:21:37.567Z,52.38
2023-05-07T23:26:39.429Z,51.52
2023-05-07T23:29:06.182Z,51.71
2023-05-07T23:31:32.844Z,52.01
2023-05-07T23:34:23.797Z,51.66
2023-05-07T23:36:51.337Z,50.91
2023-05-07T23:39:18.936Z,51.31
2023-05-07T23:41:46.075Z,51.16
2023-05-07T23:45:13.997Z,51.37
2023-05-07T23:48:00.647Z,51.88
2023-05-07T23:53:02.545Z,51.74
2023-05-07T23:55:29.148Z,51.61
2023-05-07T23:57:55.793Z,51.11
